createdAt,value
2018-07-05T00:02:10.063Z,8.63
2018-07-05T00:04:50.091Z,8.40
2018-07-05T00:07:29.740Z,8.53
2018-07-05T00:10:09.187Z,9.60
2018-07-05T00:12:49.527Z,9.60
2018-07-05T00:15:29.327Z,10.10
2018-07-05T00:18:08.934Z,9.60
2018-07-05T00:20:48.617Z,9.10
2018-07-05T00:23:28.643Z,9.60
2018-07-05T00:26:08.734Z,9.90
2018-07-05T00:28:48.781Z,9.50
2018-07-05T00:31:28.402Z,9.17
2018-07-05T00:34:08.177Z,8.97
2018-07-05T00:36:41.873Z,9.93
2018-07-05T00:39:21.611Z,9.10
2018-07-05T00:42:01.159Z,8.47
2018-07-05T00:44:41.260Z,8.30
2018-07-05T00:47:20.908Z,10.03
2018-07-05T00:50:00.611Z,10.53
2018-07-05T00:52:40.230Z,12.30
2018-07-05T00:55:19.890Z,9.83
2018-07-05T00:57:59.595Z,11.50
2018-07-05T01:00:39.934Z,10.57
2018-07-05T01:03:19.840Z,11.47
2018-07-05T01:05:59.976Z,11.73
2018-07-05T01:08:39.694Z,11.75
2018-07-05T01:11:19.328Z,11.40
2018-07-05T01:13:58.828Z,11.30
2018-07-05T01:16:39.002Z,10.90
2018-07-05T01:19:18.703Z,9.97
2018-07-05T01:21:58.283Z,11.57
2018-07-05T01:24:38.027Z,11.73
2018-07-05T01:27:17.669Z,11.40
2018-07-05T01:29:57.313Z,11.87
2018-07-05T01:32:37.475Z,10.27
2018-07-05T01:35:17.058Z,10.97
2018-07-05T01:37:56.959Z,10.50
2018-07-05T01:40:36.474Z,11.88
2018-07-05T01:43:16.313Z,11.33
2018-07-05T01:45:49.865Z,9.87
2018-07-05T01:48:30.410Z,11.13
2018-07-05T01:51:10.206Z,12.23
2018-07-05T01:53:50.350Z,11.77
2018-07-05T01:56:29.961Z,10.40
2018-07-05T01:59:09.652Z,12.00
2018-07-05T02:01:49.286Z,12.10
2018-07-05T02:04:29.370Z,13.20
2018-07-05T02:07:09.346Z,12.90
2018-07-05T02:09:49.094Z,12.77
2018-07-05T02:12:28.777Z,12.30
2018-07-05T02:15:08.435Z,12.20
2018-07-05T02:17:42.129Z,13.30
2018-07-05T02:20:22.490Z,11.60
2018-07-05T02:23:02.033Z,11.87
2018-07-05T02:25:42.209Z,12.47
2018-07-05T02:28:21.972Z,11.90
2018-07-05T02:31:01.795Z,13.20
2018-07-05T02:33:41.546Z,11.25
2018-07-05T02:36:21.315Z,11.20
2018-07-05T02:39:06.362Z,11.83
2018-07-05T02:41:46.347Z,11.10
2018-07-05T02:51:52.945Z,11.60
2018-07-05T02:54:32.523Z,11.72
2018-07-05T02:57:12.220Z,11.00
2018-07-05T02:59:52.001Z,11.23
2018-07-05T03:02:31.596Z,11.90
2018-07-05T03:05:11.206Z,11.13
2018-07-05T03:07:51.316Z,11.67
2018-07-05T03:10:30.965Z,9.83
2018-07-05T03:13:10.693Z,10.70
2018-07-05T03:15:50.249Z,11.70
2018-07-05T03:18:30.031Z,10.93
2018-07-05T03:21:09.522Z,11.05
2018-07-05T03:23:49.574Z,12.47
2018-07-05T03:26:29.366Z,11.67
2018-07-05T03:29:08.987Z,11.60
2018-07-05T03:31:42.600Z,13.55
2018-07-05T03:34:22.608Z,16.87
2018-07-05T03:37:02.574Z,23.53
2018-07-05T03:39:42.280Z,16.20
2018-07-05T03:42:15.958Z,13.70
2018-07-05T03:44:55.873Z,11.17
2018-07-05T03:47:35.469Z,13.75
2018-07-05T03:50:15.178Z,13.33
2018-07-05T03:52:54.878Z,12.43
2018-07-05T03:55:34.807Z,13.93
2018-07-05T03:58:14.574Z,13.03
2018-07-05T04:00:54.401Z,12.97
2018-07-05T04:03:34.939Z,12.40
2018-07-05T04:06:14.647Z,12.07
2018-07-05T04:08:54.982Z,10.23
2018-07-05T04:11:35.288Z,10.68
2018-07-05T04:14:15.102Z,11.20
2018-07-05T04:16:54.799Z,10.87
2018-07-05T04:19:38.371Z,8.70
2018-07-05T04:22:18.082Z,9.43
2018-07-05T04:24:57.688Z,9.13
2018-07-05T04:27:31.805Z,10.15
2018-07-05T04:30:11.435Z,9.23
2018-07-05T04:32:51.030Z,9.30
2018-07-05T04:35:30.754Z,9.25
2018-07-05T04:38:10.441Z,9.33
2018-07-05T04:40:49.968Z,15.63
2018-07-05T04:43:30.134Z,9.80
2018-07-05T04:46:09.690Z,9.77
2018-07-05T04:48:49.570Z,9.97
2018-07-05T04:51:29.288Z,9.13
2018-07-05T04:54:08.932Z,10.07
2018-07-05T04:56:48.687Z,10.20
2018-07-05T04:59:28.840Z,10.40
2018-07-05T05:02:08.534Z,10.47
2018-07-05T05:04:48.508Z,10.87
2018-07-05T05:07:28.463Z,9.97
2018-07-05T05:10:08.707Z,11.37
2018-07-05T05:12:48.470Z,10.40
2018-07-05T05:15:29.019Z,9.50
2018-07-05T05:18:08.686Z,11.03
2018-07-05T05:20:48.919Z,11.17
2018-07-05T05:23:28.510Z,10.50
2018-07-05T05:26:08.174Z,10.07
2018-07-05T05:28:47.898Z,9.80
2018-07-05T05:31:28.097Z,10.20
2018-07-05T05:34:07.778Z,10.40
2018-07-05T05:36:47.414Z,10.63
2018-07-05T05:39:27.479Z,10.30
2018-07-05T05:42:07.162Z,7.73
2018-07-05T05:44:46.794Z,7.63
2018-07-05T05:53:05.394Z,6.37
2018-07-05T05:55:45.183Z,5.65
2018-07-05T05:58:19.706Z,6.07
2018-07-05T06:00:59.491Z,5.20
2018-07-05T06:03:39.334Z,5.53
2018-07-05T06:06:19.231Z,5.70
2018-07-05T06:08:59.479Z,4.97
2018-07-05T06:11:39.894Z,4.40
2018-07-05T06:14:19.513Z,4.87
2018-07-05T06:16:59.087Z,4.57
2018-07-05T06:19:38.743Z,4.90
2018-07-05T06:22:18.503Z,4.67
2018-07-05T06:24:58.471Z,4.90
2018-07-05T06:27:38.390Z,4.45
2018-07-05T06:30:18.215Z,4.50
2018-07-05T06:32:58.046Z,4.40
2018-07-05T06:35:37.624Z,3.80
2018-07-05T06:38:17.298Z,3.67
2018-07-05T06:40:57.339Z,4.53
2018-07-05T06:43:37.136Z,4.50
2018-07-05T06:46:16.987Z,4.67
2018-07-05T06:48:56.507Z,4.03
2018-07-05T06:51:36.591Z,3.10
2018-07-05T06:54:16.258Z,3.40
2018-07-05T06:56:56.166Z,2.97
2018-07-05T06:59:35.815Z,3.27
2018-07-05T07:02:15.526Z,3.00
2018-07-05T07:04:49.613Z,3.80
2018-07-05T07:07:29.379Z,2.93
2018-07-05T07:10:09.127Z,3.20
2018-07-05T07:12:50.367Z,3.33
2018-07-05T07:15:30.023Z,3.00
2018-07-05T07:18:09.788Z,3.43
2018-07-05T07:20:49.670Z,3.70
2018-07-05T07:23:29.870Z,4.07
2018-07-05T07:26:09.976Z,4.03
2018-07-05T07:28:44.064Z,4.97
2018-07-05T07:31:23.811Z,3.63
2018-07-05T07:34:03.567Z,3.27
2018-07-05T07:36:43.326Z,3.80
2018-07-05T07:39:23.029Z,3.70
2018-07-05T07:41:51.366Z,3.75
2018-07-05T07:44:20.151Z,4.27
2018-07-05T07:46:49.402Z,3.47
2018-07-05T07:49:17.265Z,4.50
2018-07-05T07:51:44.619Z,4.40
2018-07-05T07:54:11.998Z,3.30
2018-07-05T07:56:39.407Z,3.40
2018-07-05T07:59:06.808Z,4.10
2018-07-05T08:01:35.343Z,4.55
2018-07-05T08:04:03.333Z,4.07
2018-07-05T08:06:30.906Z,4.70
2018-07-05T08:08:58.591Z,4.05
2018-07-05T08:11:25.919Z,3.15
2018-07-05T08:13:53.315Z,3.57
2018-07-05T08:16:20.695Z,3.30
2018-07-05T08:18:48.283Z,3.17
2018-07-05T08:21:16.530Z,3.20
2018-07-05T08:23:43.957Z,3.27
2018-07-05T08:26:11.318Z,3.75
2018-07-05T08:28:38.817Z,3.63
2018-07-05T08:31:06.678Z,3.83
2018-07-05T08:33:34.147Z,3.33
2018-07-05T08:36:01.750Z,2.90
2018-07-05T08:38:29.111Z,3.15
2018-07-05T08:40:56.491Z,3.20
2018-07-05T08:43:24.067Z,3.07
2018-07-05T08:45:51.458Z,3.50
2018-07-05T08:48:18.791Z,3.17
2018-07-05T08:50:46.675Z,3.07
2018-07-05T08:53:15.858Z,2.80
2018-07-05T08:55:43.330Z,3.13
2018-07-05T08:58:10.707Z,3.20
2018-07-05T09:00:38.061Z,3.10
2018-07-05T09:03:05.658Z,2.70
2018-07-05T09:05:33.066Z,2.93
2018-07-05T09:08:00.976Z,2.87
2018-07-05T09:10:28.326Z,2.90
2018-07-05T09:12:55.674Z,2.70
2018-07-05T09:15:23.384Z,2.87
2018-07-05T09:17:50.948Z,2.33
2018-07-05T09:20:24.484Z,2.77
2018-07-05T09:22:52.262Z,2.27
2018-07-05T09:25:19.643Z,2.02
2018-07-05T09:27:47.338Z,2.20
2018-07-05T09:30:15.539Z,2.43
2018-07-05T09:32:43.047Z,2.50
2018-07-05T09:35:11.114Z,2.67
2018-07-05T09:37:38.504Z,2.23
2018-07-05T09:40:05.862Z,2.70
2018-07-05T09:42:33.244Z,3.45
2018-07-05T09:45:01.107Z,2.60
2018-07-05T09:47:28.428Z,3.40
2018-07-05T09:49:55.806Z,2.80
2018-07-05T09:52:23.144Z,3.10
2018-07-05T09:54:50.479Z,3.00
2018-07-05T09:57:18.841Z,3.20
2018-07-05T09:59:46.196Z,3.00
2018-07-05T10:09:44.998Z,2.53
2018-07-05T10:12:12.334Z,2.62
2018-07-05T10:14:39.727Z,3.50
2018-07-05T10:17:07.995Z,2.70
2018-07-05T10:19:36.398Z,2.73
2018-07-05T10:22:03.736Z,3.30
2018-07-05T10:24:31.094Z,3.30
2018-07-05T10:26:58.434Z,3.27
2018-07-05T10:29:38.099Z,3.27
2018-07-05T10:32:18.150Z,3.43
2018-07-05T10:34:46.217Z,3.70
2018-07-05T10:37:20.308Z,3.62
2018-07-05T10:40:00.066Z,4.07
2018-07-05T10:42:40.620Z,4.00
2018-07-05T10:45:20.358Z,4.03
2018-07-05T10:48:00.319Z,3.30
2018-07-05T10:50:40.361Z,3.80
2018-07-05T10:53:20.103Z,3.40
2018-07-05T10:55:59.712Z,3.50
2018-07-05T10:58:39.442Z,3.50
2018-07-05T11:01:19.206Z,3.40
2018-07-05T11:03:58.959Z,3.20
2018-07-05T11:06:39.903Z,3.83
2018-07-05T11:09:19.533Z,3.40
2018-07-05T11:11:59.767Z,3.87
2018-07-05T11:14:39.400Z,4.47
2018-07-05T11:17:13.014Z,3.20
2018-07-05T11:19:52.963Z,3.30
2018-07-05T11:22:33.083Z,3.63
2018-07-05T11:25:12.648Z,3.60
2018-07-05T11:27:52.871Z,3.33
2018-07-05T11:30:32.487Z,3.20
2018-07-05T11:33:12.163Z,3.00
2018-07-05T11:35:51.936Z,3.07
2018-07-05T11:38:32.094Z,3.27
2018-07-05T11:41:11.806Z,3.45
2018-07-05T11:43:51.619Z,3.40
2018-07-05T11:46:31.327Z,3.33
2018-07-05T11:49:10.893Z,2.73
2018-07-05T11:51:50.457Z,3.77
2018-07-05T11:54:24.258Z,3.40
2018-07-05T11:57:04.019Z,3.90
2018-07-05T11:59:37.871Z,3.52
2018-07-05T12:02:17.736Z,3.27
2018-07-05T12:04:57.351Z,3.40
2018-07-05T12:07:37.032Z,3.73
2018-07-05T12:10:17.426Z,3.33
2018-07-05T12:12:57.410Z,3.40
2018-07-05T12:15:38.713Z,2.93
2018-07-05T12:18:18.329Z,3.67
2018-07-05T12:20:58.294Z,3.00
2018-07-05T12:23:32.426Z,3.00
2018-07-05T12:26:12.512Z,3.53
2018-07-05T12:28:52.142Z,3.37
2018-07-05T12:31:32.721Z,3.55
2018-07-05T12:34:12.514Z,3.80
2018-07-05T12:36:52.192Z,4.27
2018-07-05T12:39:31.791Z,4.67
2018-07-05T12:42:11.544Z,4.30
2018-07-05T12:44:51.222Z,4.40
2018-07-05T12:47:24.958Z,5.03
2018-07-05T12:50:04.790Z,4.10
2018-07-05T12:52:44.589Z,4.27
2018-07-05T12:55:24.678Z,4.43
2018-07-05T12:58:04.694Z,3.87
2018-07-05T13:00:44.274Z,4.67
2018-07-05T13:03:23.912Z,6.60
2018-07-05T13:06:03.510Z,4.80
2018-07-05T13:08:37.122Z,4.43
2018-07-05T13:11:16.720Z,6.10
2018-07-05T13:13:56.772Z,5.67
2018-07-05T13:16:36.394Z,7.50
2018-07-05T13:19:10.764Z,9.10
2018-07-05T13:21:52.870Z,10.20
2018-07-05T13:24:32.527Z,9.78
2018-07-05T13:27:12.458Z,9.40
2018-07-05T13:29:52.275Z,9.40
2018-07-05T13:32:31.854Z,9.35
2018-07-05T13:35:11.487Z,8.90
2018-07-05T13:37:51.214Z,9.07
2018-07-05T13:40:31.518Z,8.75
2018-07-05T13:43:05.230Z,10.43
2018-07-05T13:45:45.329Z,10.90
2018-07-05T13:48:25.795Z,10.87
2018-07-05T13:51:05.695Z,13.67
2018-07-05T13:53:45.751Z,10.43
2018-07-05T14:01:32.641Z,7.43
2018-07-05T14:04:12.086Z,5.33
2018-07-05T14:06:51.790Z,3.90
2018-07-05T14:09:31.707Z,3.73
2018-07-05T14:12:11.512Z,3.60
2018-07-05T14:14:51.307Z,5.63
2018-07-05T14:17:31.649Z,4.23
2018-07-05T14:20:11.371Z,4.40
2018-07-05T14:22:51.734Z,4.87
2018-07-05T14:25:25.510Z,5.33
2018-07-05T14:28:05.319Z,5.40
2018-07-05T14:30:45.264Z,5.08
2018-07-05T14:33:25.822Z,4.90
2018-07-05T14:36:05.574Z,4.67
2018-07-05T14:38:45.836Z,4.40
2018-07-05T14:41:26.586Z,4.72
2018-07-05T14:44:07.396Z,4.60
2018-07-05T14:46:47.071Z,5.03
2018-07-05T14:49:28.552Z,4.63
2018-07-05T14:52:08.301Z,4.40
2018-07-05T14:54:47.922Z,5.10
2018-07-05T14:57:28.577Z,4.10
2018-07-05T15:00:08.968Z,3.97
2018-07-05T15:02:48.797Z,4.80
2018-07-05T15:05:29.262Z,3.83
2018-07-05T15:08:08.959Z,4.07
2018-07-05T15:10:48.763Z,3.90
2018-07-05T15:13:28.576Z,4.30
2018-07-05T15:16:08.211Z,4.90
2018-07-05T15:18:47.866Z,4.17
2018-07-05T15:21:29.111Z,4.10
2018-07-05T15:24:08.870Z,4.00
2018-07-05T15:26:48.598Z,3.77
2018-07-05T15:29:28.569Z,3.40
2018-07-05T15:32:08.193Z,3.80
2018-07-05T15:34:47.936Z,3.70
2018-07-05T15:37:28.602Z,3.65
2018-07-05T15:40:08.414Z,3.43
2018-07-05T15:42:48.205Z,4.30
2018-07-05T15:45:28.727Z,4.30
2018-07-05T15:48:08.230Z,4.37
2018-07-05T15:50:47.808Z,4.50
2018-07-05T15:53:28.426Z,4.15
2018-07-05T15:56:08.172Z,4.07
2018-07-05T15:58:47.811Z,4.57
2018-07-05T16:01:27.404Z,4.90
2018-07-05T16:04:07.737Z,3.80
2018-07-05T16:06:47.402Z,4.53
2018-07-05T16:09:29.155Z,4.15
2018-07-05T16:12:08.884Z,4.03
2018-07-05T16:14:42.735Z,4.03
2018-07-05T16:17:22.284Z,3.50
2018-07-05T16:20:02.105Z,4.17
2018-07-05T16:22:41.892Z,3.97
2018-07-05T16:25:16.054Z,4.05
2018-07-05T16:27:55.643Z,4.93
2018-07-05T16:30:35.800Z,4.43
2018-07-05T16:33:17.363Z,4.40
2018-07-05T16:35:57.110Z,4.20
2018-07-05T16:38:30.858Z,4.03
2018-07-05T16:41:10.992Z,4.87
2018-07-05T16:43:50.730Z,3.97
2018-07-05T16:46:30.488Z,3.73
2018-07-05T16:49:10.262Z,4.27
2018-07-05T16:51:50.075Z,4.40
2018-07-05T16:54:31.270Z,4.10
2018-07-05T16:57:11.229Z,4.10
2018-07-05T16:59:50.796Z,4.00
2018-07-05T17:02:30.563Z,3.87
2018-07-05T17:05:10.164Z,4.07
2018-07-05T17:07:50.586Z,3.80
2018-07-05T17:10:30.603Z,3.53
2018-07-05T17:13:10.387Z,3.97
2018-07-05T17:15:50.743Z,4.03
2018-07-05T17:18:30.797Z,3.50
2018-07-05T17:21:10.304Z,3.73
2018-07-05T17:23:49.898Z,3.07
2018-07-05T17:26:30.215Z,3.00
2018-07-05T17:29:10.475Z,2.70
2018-07-05T17:31:50.689Z,3.00
2018-07-05T17:34:30.850Z,2.90
2018-07-05T17:37:10.634Z,3.03
2018-07-05T17:39:50.395Z,2.97
2018-07-05T17:42:29.955Z,3.50
2018-07-05T17:45:10.338Z,2.72
2018-07-05T17:47:50.134Z,2.77
2018-07-05T17:50:29.818Z,2.80
2018-07-05T17:53:09.406Z,2.70
2018-07-05T17:55:49.151Z,2.70
2018-07-05T17:58:28.879Z,2.80
2018-07-05T18:01:08.544Z,2.40
2018-07-05T18:03:48.110Z,2.93
2018-07-05T18:06:28.666Z,2.83
2018-07-05T18:09:08.284Z,3.00
2018-07-05T18:11:48.082Z,2.97
2018-07-05T18:14:28.630Z,2.93
2018-07-05T18:17:08.852Z,3.20
2018-07-05T18:19:48.465Z,3.23
2018-07-05T18:22:28.630Z,3.30
2018-07-05T18:25:08.522Z,3.00
2018-07-05T18:27:49.026Z,3.27
2018-07-05T18:30:28.683Z,3.60
2018-07-05T18:33:09.981Z,3.43
2018-07-05T18:35:49.701Z,3.42
2018-07-05T18:38:29.465Z,3.23
2018-07-05T18:41:09.224Z,2.70
2018-07-05T18:43:43.036Z,2.83
2018-07-05T18:46:22.646Z,3.00
2018-07-05T18:49:02.715Z,2.93
2018-07-05T18:51:42.534Z,3.07
2018-07-05T18:54:22.091Z,3.00
2018-07-05T18:57:01.750Z,3.20
2018-07-05T18:59:41.507Z,3.10
2018-07-05T19:02:22.612Z,3.20
2018-07-05T19:05:03.059Z,2.93
2018-07-05T19:07:42.609Z,3.13
2018-07-05T19:10:22.384Z,2.77
2018-07-05T19:13:01.995Z,3.53
2018-07-05T19:15:35.670Z,2.92
2018-07-05T19:18:15.346Z,2.93
2018-07-05T19:20:55.620Z,3.30
2018-07-05T19:23:35.402Z,3.07
2018-07-05T19:26:15.033Z,3.23
2018-07-05T19:28:55.822Z,3.27
2018-07-05T19:31:35.418Z,2.95
2018-07-05T19:34:15.086Z,3.17
2018-07-05T19:36:55.198Z,3.80
2018-07-05T19:39:34.824Z,3.90
2018-07-05T19:42:15.063Z,4.00
2018-07-05T19:44:54.754Z,5.40
2018-07-05T19:47:34.789Z,4.20
2018-07-05T19:50:14.467Z,3.83
2018-07-05T19:52:54.626Z,4.50
2018-07-05T19:55:34.265Z,3.37
2018-07-05T19:58:14.150Z,4.20
2018-07-05T20:00:53.815Z,5.30
2018-07-05T20:03:33.503Z,5.90
2018-07-05T20:06:13.101Z,4.83
2018-07-05T20:08:53.119Z,5.20
2018-07-05T20:11:32.746Z,5.47
2018-07-05T20:14:12.431Z,5.20
2018-07-05T20:16:52.095Z,5.50
2018-07-05T20:19:31.774Z,4.70
2018-07-05T20:22:16.953Z,4.73
2018-07-05T20:24:57.396Z,5.13
2018-07-05T20:27:37.304Z,5.63
2018-07-05T20:30:17.220Z,7.07
2018-07-05T20:32:57.076Z,4.90
2018-07-05T20:35:36.681Z,5.50
2018-07-05T20:38:16.296Z,5.07
2018-07-05T20:40:56.686Z,5.00
2018-07-05T20:43:36.300Z,4.27
2018-07-05T20:46:16.347Z,4.10
2018-07-05T20:48:49.971Z,4.13
2018-07-05T20:51:29.822Z,4.30
2018-07-05T20:54:09.346Z,4.87
2018-07-05T20:56:49.479Z,5.20
2018-07-05T20:59:29.330Z,5.13
2018-07-05T21:02:03.120Z,6.50
2018-07-05T21:04:42.722Z,6.87
2018-07-05T21:07:22.302Z,6.67
2018-07-05T21:10:02.052Z,6.13
2018-07-05T21:12:42.423Z,7.70
2018-07-05T21:15:22.066Z,7.00
2018-07-05T21:17:56.316Z,8.10
2018-07-05T21:20:36.110Z,8.37
2018-07-05T21:23:15.930Z,9.40
2018-07-05T21:25:55.974Z,10.35
2018-07-05T21:28:35.654Z,8.55
2018-07-05T21:31:15.744Z,11.00
2018-07-05T21:33:55.288Z,10.53
2018-07-05T21:36:35.020Z,9.30
2018-07-05T21:39:14.659Z,10.47
2018-07-05T21:41:48.272Z,9.50
2018-07-05T21:44:29.002Z,9.20
2018-07-05T21:47:08.619Z,10.13
2018-07-05T21:49:49.338Z,9.20
2018-07-05T21:52:29.275Z,9.00
2018-07-05T21:55:08.979Z,9.53
2018-07-05T21:57:48.487Z,8.43
2018-07-05T22:00:29.472Z,8.50
2018-07-05T22:03:09.519Z,8.93
2018-07-05T22:05:50.865Z,7.80
2018-07-05T22:08:30.547Z,7.63
2018-07-05T22:11:10.223Z,8.60
2018-07-05T22:13:49.926Z,9.10
2018-07-05T22:16:29.910Z,8.03
2018-07-05T22:19:14.907Z,9.33
2018-07-05T22:21:59.917Z,8.20
2018-07-05T22:24:45.093Z,8.40
2018-07-05T22:27:31.270Z,7.90
2018-07-05T22:30:16.227Z,8.90
2018-07-05T22:32:50.905Z,7.80
2018-07-05T22:35:30.523Z,7.67
2018-07-05T22:38:10.134Z,7.27
2018-07-05T22:40:49.883Z,7.67
2018-07-05T22:43:23.678Z,8.40
2018-07-05T22:46:03.174Z,7.00
2018-07-05T22:48:43.559Z,7.80
2018-07-05T22:51:23.366Z,7.00
2018-07-05T22:54:02.918Z,7.60
2018-07-05T22:56:42.670Z,8.67
2018-07-05T22:59:22.366Z,8.50
2018-07-05T23:02:01.995Z,9.27
2018-07-05T23:04:41.669Z,7.60
2018-07-05T23:07:21.170Z,7.23
2018-07-05T23:10:00.819Z,8.23
2018-07-05T23:12:40.627Z,8.43
2018-07-05T23:15:20.303Z,8.10
2018-07-05T23:18:00.189Z,8.33
2018-07-05T23:20:40.302Z,8.47
2018-07-05T23:23:19.963Z,8.77
2018-07-05T23:25:59.426Z,8.48
2018-07-05T23:28:39.286Z,7.97
2018-07-05T23:31:19.409Z,8.93
2018-07-05T23:33:59.471Z,8.50
2018-07-05T23:36:39.952Z,8.77
2018-07-05T23:39:20.001Z,8.33
2018-07-05T23:41:59.673Z,8.45
2018-07-05T23:44:39.387Z,8.17
2018-07-05T23:47:19.120Z,8.23
2018-07-05T23:49:58.826Z,9.07
2018-07-05T23:52:38.998Z,8.70
2018-07-05T23:55:18.722Z,8.97
2018-07-05T23:57:58.904Z,9.20
